Map

Track Data

SID SEASON NUMBER BASIN SUBBASIN NAME ISO_TIME NATURE LAT LON WMO_WIND WMO_PRES WMO_AGENCY TRACK_TYPE DIST2LAND LANDFALL IFLAG USA_AGENCY USA_ATCF_ID USA_LAT USA_LON USA_RECORD USA_STATUS USA_WIND USA_PRES USA_SSHS USA_R34_NE USA_R34_SE USA_R34_SW USA_R34_NW USA_R50_NE USA_R50_SE USA_R50_SW USA_R50_NW USA_R64_NE USA_R64_SE USA_R64_SW USA_R64_NW USA_POCI USA_ROCI USA_RMW USA_EYE TOKYO_LAT TOKYO_LON TOKYO_GRADE TOKYO_WIND TOKYO_PRES TOKYO_R50_DIR TOKYO_R50_LONG TOKYO_R50_SHORT TOKYO_R30_DIR TOKYO_R30_LONG TOKYO_R30_SHORT TOKYO_LAND CMA_LAT CMA_LON CMA_CAT CMA_WIND CMA_PRES HKO_LAT HKO_LON HKO_CAT HKO_WIND HKO_PRES NEWDELHI_LAT NEWDELHI_LON NEWDELHI_GRADE NEWDELHI_WIND NEWDELHI_PRES NEWDELHI_CI NEWDELHI_DP NEWDELHI_POCI REUNION_LAT REUNION_LON REUNION_TYPE REUNION_WIND REUNION_PRES REUNION_TNUM REUNION_CI REUNION_RMW REUNION_R34_NE REUNION_R34_SE REUNION_R34_SW REUNION_R34_NW REUNION_R50_NE REUNION_R50_SE REUNION_R50_SW REUNION_R50_NW REUNION_R64_NE REUNION_R64_SE REUNION_R64_SW REUNION_R64_NW BOM_LAT BOM_LON BOM_TYPE BOM_WIND BOM_PRES BOM_TNUM BOM_CI BOM_RMW BOM_R34_NE BOM_R34_SE BOM_R34_SW BOM_R34_NW BOM_R50_NE BOM_R50_SE BOM_R50_SW BOM_R50_NW BOM_R64_NE BOM_R64_SE BOM_R64_SW BOM_R64_NW BOM_ROCI BOM_POCI BOM_EYE BOM_POS_METHOD BOM_PRES_METHOD NADI_LAT NADI_LON NADI_CAT NADI_WIND NADI_PRES WELLINGTON_LAT WELLINGTON_LON WELLINGTON_WIND WELLINGTON_PRES DS824_LAT DS824_LON DS824_STAGE DS824_WIND DS824_PRES TD9636_LAT TD9636_LON TD9636_STAGE TD9636_WIND TD9636_PRES TD9635_LAT TD9635_LON TD9635_WIND TD9635_PRES TD9635_ROCI NEUMANN_LAT NEUMANN_LON NEUMANN_CLASS NEUMANN_WIND NEUMANN_PRES MLC_LAT MLC_LON MLC_CLASS MLC_WIND MLC_PRES USA_GUST BOM_GUST BOM_GUST_PER REUNION_GUST REUNION_GUST_PER USA_SEAHGT USA_SEARAD_NE USA_SEARAD_SE USA_SEARAD_SW USA_SEARAD_NW STORM_SPEED STORM_DIR
1928046S17073 1928 8 SI MM NOT_NAMED 1928-02-14 18:00:00 NR -17.3000 72.5000 main 1582 1556 __________O___ -1 -17.3000 72.5000 7 6 223
1928046S17073 1928 8 SI MM NOT_NAMED 1928-02-14 21:00:00 NR -17.5013 72.3029 main 1556 1530 __________P___ -1 -17.5013 72.3029 7 6 223
1928046S17073 1928 8 SI MM NOT_NAMED 1928-02-15 00:00:00 NR -17.7221 72.0845 main 1530 1492 __________P___ -1 -17.7221 72.0845 7 7 224
1928046S17073 1928 8 SI MM NOT_NAMED 1928-02-15 03:00:00 NR -17.9819 71.8240 main 1492 1454 __________P___ -1 -17.9819 71.8240 7 8 224
1928046S17073 1928 8 SI MM NOT_NAMED 1928-02-15 06:00:00 NR -18.3000 71.5000 main 1454 1405 __________O___ -1 -18.3000 71.5000 7 10 224
1928046S17073 1928 8 SI MM NOT_NAMED 1928-02-15 09:00:00 NR -18.6904 71.0996 main 1405 1356 __________P___ -1 -18.6904 71.0996 7 12 224
1928046S17073 1928 8 SI MM NOT_NAMED 1928-02-15 12:00:00 NR -19.1456 70.6452 main 1346 1298 __________P___ -1 -19.1456 70.6452 7 13 222
1928046S17073 1928 8 SI MM NOT_NAMED 1928-02-15 15:00:00 NR -19.6529 70.1681 main 1297 1241 __________P___ -1 -19.6529 70.1681 7 14 220
1928046S17073 1928 8 SI MM NOT_NAMED 1928-02-15 18:00:00 NR -20.2000 69.7000 main 1241 1198 __________O___ -1 -20.2000 69.7000 7 14 218
1928046S17073 1928 8 SI MM NOT_NAMED 1928-02-15 21:00:00 NR -20.7519 69.2532 main 1198 1148 __________P___ -1 -20.7519 69.2532 7 14 216
1928046S17073 1928 8 SI MM NOT_NAMED 1928-02-16 00:00:00 NR -21.3402 68.8253 main 1148 1122 __________P___ -1 -21.3402 68.8253 7 14 212
1928046S17073 1928 8 SI MM NOT_NAMED 1928-02-16 03:00:00 NR -21.9583 68.4346 main 1115 1093 __________P___ -1 -21.9583 68.4346 7 14 208
1928046S17073 1928 8 SI MM NOT_NAMED 1928-02-16 06:00:00 NR -22.6000 68.1000 main 1096 1078 __________O___ -1 -22.6000 68.1000 7 14 205
1928046S17073 1928 8 SI MM NOT_NAMED 1928-02-16 09:00:00 NR -23.2490 67.7862 main 1081 1075 __________P___ -1 -23.2490 67.7862 7 14 201
1928046S17073 1928 8 SI MM NOT_NAMED 1928-02-16 12:00:00 NR -23.9196 67.5364 main 1076 1076 __________P___ -1 -23.9196 67.5364 7 14 196
1928046S17073 1928 8 SI MM NOT_NAMED 1928-02-16 15:00:00 NR -24.6053 67.3682 main 1095 1090 __________P___ -1 -24.6053 67.3682 7 14 189
1928046S17073 1928 8 SI MM NOT_NAMED 1928-02-16 18:00:00 NR -25.3000 67.3000 main 1119 1119 __________O___ -1 -25.3000 67.3000 7 14 0
1928046S17073 1928 8 SI MM NOT_NAMED 1928-02-16 21:00:00 NR -25.9981 67.3427 main 1156 1156 __________P___ -1 -25.9981 67.3427 7 14 174
1928046S17073 1928 8 SI MM NOT_NAMED 1928-02-17 00:00:00 NR -26.6980 67.4760 main 1214 1214 __________P___ -1 -26.6980 67.4760 7 14 168
1928046S17073 1928 8 SI MM NOT_NAMED 1928-02-17 03:00:00 NR -27.3989 67.6716 main 1274 1274 __________P___ -1 -27.3989 67.6716 7 15 165
1928046S17073 1928 8 SI MM NOT_NAMED 1928-02-17 06:00:00 NR -28.1000 67.9000 main 1336 __________O___ -1 -28.1000 67.9000 7 15 164

About IBTrACS Database

This database is a web-friendly format of International Best Track Archive for Climate Stewardship (IBTrACS), a global best track data archive curated by NOAA dating back to 1842.

Updated: 2021-11-26